Tiempo atmosférico en la estación meteorológica de Castejon De Valdejasa, Zaragoza (442 m.)

Fecha
DESCASC
Temp. máxima en grados centígrados (hora)
DESCASC
Temp. mínima en grados centígrados (hora)
DESCASC
Temp. media en grados centígrados
DESCASC
Racha de viento máxima en m/sg (hora)
DESCASC
Velocidad máxima media en intervalos de 10 minutos(hora)
DESCASC
Precipitaciones diarias en mm
DESCASC
Precipitaciones de 00:00 a 06:00 en mm
DESCASC
Precipitaciones de 06:00 a 12:00 en mm
DESCASC
Precipitaciones de 12:00 a 18:00 en mm
DESCASC
Precipitaciones de 18:00 a 24:00 en mm
DESCASC
10-12-2017 13.3 (23:59) 4.3 (03:50) 8.8 13.61 (23:59) 8.33 (21:50) 2 0 0 1.8 0.2
09-12-2017 8.7 (14:40) 3.2 (10:30) 5.9 12.5 (12:20) 8.61 (12:30) 0.4 0 0 0 0.4
08-12-2017 10.6 (15:00) 1.4 (00:30) 6 14.17 (14:50) 8.89 (14:50) 0 0 0 0 0
07-12-2017 9.4 (16:00) -1 (-00:0) 4.2 7.5 (13:50) 5.83 (13:50) 0 0 0 0 0
06-12-2017 7.9 (15:20) -1 (-00:0) 3.5 4.44 (12:20) 3.61 (22:50) 0 0 0 0 0
05-12-2017 8 (15:40) -0.8 (-00:0) 3.6 5.56 (13:00) 4.17 (13:20) 0 0 0 0 0
04-12-2017 10.7 (15:00) 0.8 (00:00) 5.7 11.39 (16:10) 8.33 (16:10) 0 0 0 0 0
03-12-2017 5.5 (13:50) -3.9 (-00:0) 0.8 14.17 (02:20) 9.17 (12:30) 0 0 0 0 0
02-12-2017 5 (13:30) -1.7 (-00:0) 1.6 17.5 (16:00) 10 (16:00) 0 0 0 0 0
01-12-2017 4.4 (03:30) -0.4 (00:00) 2 14.72 (09:20) 9.17 (08:10) 2.8 0 2.8 0 0
30-11-2017 7.9 (15:40) -0.2 (00:00) 3.9 13.89 (16:10) 8.06 (13:40) 0 0 0 0 0
29-11-2017 9.5 (15:10) 1.2 (00:00) 5.4 14.44 (15:50) 9.17 (15:50) 0 0 0 0 0
28-11-2017 10.3 (15:20) -1.2 (-00:0) 4.6 7.5 (12:50) 6.11 (11:40) 0 0 0 0 0
27-11-2017 11.6 (15:00) -0.7 (-00:0) 5.5 5.83 (15:30) 3.89 (15:40) 0 0 0 0 0
26-11-2017 10 (14:50) 3 (00:00) 6.5 15.83 (14:10) 9.72 (14:30) 0 0 0 0 0
25-11-2017 13.9 (00:20) 4.6 (00:00) 9.2 15.83 (13:30) 9.72 (12:50) 0.2 0.2 0 0 0
24-11-2017 16.7 (10:40) 11 (00:00) 13.9 5.28 (19:20) 3.89 (20:20) 0 0 0 0 0
23-11-2017 20 (14:40) 8.6 (00:00) 14.3 8.61 (06:40) 6.67 (07:00) 0 0 0 0 0
22-11-2017 -- (--) -- (--) -- -- (--) -- (--) -- -- 0 -- 0
21-11-2017 -- (--) -- (--) -- -- (--) -- (--) -- -- -- -- --
20-11-2017 -- (--) -- (--) -- -- (--) -- (--) -- -- -- -- --
19-11-2017 -- (--) -- (--) -- -- (--) -- (--) -- -- -- -- --
18-11-2017 -- (--) -- (--) -- -- (--) -- (--) -- -- -- -- --
17-11-2017 -- (--) -- (--) -- -- (--) -- (--) -- -- -- -- --
16-11-2017 -- (--) -- (--) -- -- (--) -- (--) -- -- -- -- --
15-11-2017 -- (--) -- (--) -- -- (--) -- (--) -- -- -- -- --

Gráficas

Temp. máximas Temp. mínimas Temp. medias Precipitaciones Rachas de viento máximas Velocidades máximas media en intervalos de 10 minutos

Datos horarios

Fecha y hora oficial Temperatura (ºC) Velocidad del viento (km/h) Dirección del viento Racha (km/h) Dirección de racha Precipitación (mm) Presión (hPa) Tendencia (hPa) Humedad (%)
2017-12-14 23:00:00 10.4 12 Noroeste 18 Noroeste 0 -- -- 86
2017-12-14 22:00:00 9.2 5 Este 10 Nordeste 0 -- -- 89
2017-12-14 21:00:00 9.2 7 Nordeste 12 Nordeste 0 -- -- 91
2017-12-14 20:00:00 9.6 5 Nordeste 8 Nordeste 0 -- -- 90
2017-12-14 19:00:00 9.5 4 Nordeste 9 Nordeste 0.2 -- -- 92
2017-12-14 18:00:00 9.6 5 Nordeste 11 Este 0.2 -- -- 90
2017-12-14 17:00:00 10.5 5 Nordeste 8 Nordeste 0 -- -- 86
2017-12-14 16:00:00 11.2 3 Nordeste 8 Este 0 -- -- 77
2017-12-14 15:00:00 10.6 2 Sudeste 6 Sudoeste 0 -- -- 82
2017-12-14 14:00:00 9.6 5 Sudoeste 10 Oeste 0 -- -- 96
2017-12-14 13:00:00 8 8 Oeste 12 Oeste 0 -- -- 97
2017-12-14 12:00:00 7.4 10 Oeste 12 Oeste 0 -- -- 97
2017-12-14 11:00:00 6.6 9 Oeste 12 Oeste 0 -- -- 97
2017-12-14 10:00:00 5.8 9 Oeste 15 Oeste 0 -- -- 95
2017-12-14 09:00:00 8 12 Oeste 28 Noroeste 0.4 -- -- 95
2017-12-14 08:00:00 8.1 18 Noroeste 30 Noroeste 0 -- -- 94
2017-12-14 07:00:00 7.7 14 Oeste 24 Noroeste 0 -- -- 92
2017-12-14 06:00:00 5.7 2 Norte 7 Este 0 -- -- 84
2017-12-14 05:00:00 6 6 Nordeste 11 Nordeste 0 -- -- 83
2017-12-14 04:00:00 4.9 5 Nordeste 11 Este 0 -- -- 82
2017-12-14 03:00:00 5.7 3 Norte 11 Este 0 -- -- 81
2017-12-14 02:00:00 5.1 4 Nordeste 9 Nordeste 0 -- -- 83
2017-12-14 01:00:00 5.6 0 Calma 10 Este 0 -- -- 81
2017-12-14 00:00:00 5.2 8 Este 10 Nordeste 0 -- -- 82
2017-12-13 23:00:00 6.3 0 Calma 8 Oeste 0 -- -- 73
2017-12-13 22:00:00 6.5 0 Calma 8 Noroeste 0 -- -- 73
2017-12-13 21:00:00 6.4 4 Oeste 8 Oeste 0 -- -- 74
2017-12-13 20:00:00 5.4 3 Sur 8 Oeste 0 -- -- 77
2017-12-13 19:00:00 4.9 3 Este 6 Norte 0 -- -- 76
2017-12-13 18:00:00 7.1 3 Este 10 Norte 0 -- -- 68
2017-12-13 17:00:00 8.6 5 Norte 12 Noroeste 0 -- -- 61
2017-12-13 16:00:00 9.3 3 Sur 6 Este 0 -- -- 56
2017-12-13 15:00:00 9.1 3 Sudeste 8 Sudoeste 0 -- -- 56
2017-12-13 14:00:00 8.1 3 Sudeste 11 Oeste 0 -- -- 62
2017-12-13 13:00:00 7.7 10 Oeste 17 Oeste 0 -- -- 63
2017-12-13 12:00:00 6.9 5 Oeste 8 Sudoeste 0 -- -- 64
2017-12-13 11:00:00 4.6 6 Nordeste 12 Este 0 -- -- 72
2017-12-13 10:00:00 2.7 8 Nordeste 12 Este 0 -- -- 78
2017-12-13 09:00:00 1.4 11 Nordeste 14 Nordeste 0 -- -- 81
2017-12-13 08:00:00 1 10 Nordeste 17 Nordeste 0 -- -- 77
2017-12-13 07:00:00 1.1 11 Nordeste 15 Nordeste 0 -- -- 78
2017-12-13 06:00:00 0 13 Nordeste 16 Nordeste 0 -- -- 87
2017-12-13 05:00:00 0.4 10 Nordeste 13 Nordeste 0 -- -- 87
2017-12-13 04:00:00 1.3 8 Nordeste 11 Nordeste 0 -- -- 86
2017-12-13 03:00:00 0.8 7 Este 10 Este 0 -- -- 88
2017-12-13 02:00:00 1.1 6 Este 9 Este 0 -- -- 85
2017-12-13 01:00:00 1.9 3 Oeste 8 Noroeste 0 -- -- 84
2017-12-13 00:00:00 1.9 4 Oeste 18 Noroeste 0 -- -- 81
2017-12-12 23:00:00 3.9 13 Noroeste 20 Noroeste 0 -- -- 76
2017-12-12 22:00:00 3.4 10 Noroeste 16 Noroeste 0 -- -- 78
2017-12-12 21:00:00 3.9 12 Oeste 21 Oeste 0 -- -- 75
2017-12-12 20:00:00 4.5 9 Noroeste 30 Noroeste 0 -- -- 71
2017-12-12 19:00:00 5.4 14 Noroeste 29 Noroeste 0 -- -- 68
2017-12-12 18:00:00 5.6 16 Noroeste 31 Noroeste 0 -- -- 68
2017-12-12 17:00:00 7 21 Noroeste 36 Noroeste 0 -- -- 64
2017-12-12 16:00:00 7.6 23 Noroeste 41 Oeste 0 -- -- 57
2017-12-12 15:00:00 7.9 20 Noroeste 39 Noroeste 0 -- -- 55
2017-12-12 14:00:00 7.3 24 Oeste 36 Noroeste 0 -- -- 61
2017-12-12 13:00:00 6.6 24 Noroeste 42 Oeste 0 -- -- 64
2017-12-12 12:00:00 5.6 26 Oeste 42 Oeste 0 -- -- 71
2017-12-12 11:00:00 4.2 23 Oeste 42 Oeste 0 -- -- 75
2017-12-12 10:00:00 3.1 23 Noroeste 41 Oeste 0 -- -- 78
2017-12-12 09:00:00 2.5 25 Oeste 45 Oeste 0 -- -- 82
2017-12-12 08:00:00 2 17 Oeste 44 Oeste 0 -- -- 82
2017-12-12 07:00:00 2.3 20 Noroeste 35 Noroeste 0 -- -- 82
2017-12-12 06:00:00 2.3 17 Noroeste 39 Oeste 0 -- -- 82
2017-12-12 05:00:00 2.5 24 Oeste 42 Noroeste 0 -- -- 80
2017-12-12 04:00:00 2.7 22 Oeste 40 Oeste 0 -- -- 77
2017-12-12 03:00:00 2.8 19 Oeste 40 Oeste 0 -- -- 78
2017-12-12 02:00:00 3.4 22 Oeste 38 Oeste 0 -- -- 78
2017-12-12 01:00:00 4 24 Oeste 39 Noroeste 0 -- -- 78
2017-12-12 00:00:00 3.8 17 Oeste 33 Oeste 0 -- -- 79
2017-12-11 23:00:00 3.8 20 Oeste 37 Oeste 0 -- -- 82
2017-12-11 22:00:00 4.2 21 Oeste 39 Oeste 0 -- -- 84
2017-12-11 21:00:00 5.4 15 Oeste 31 Noroeste 0 -- -- 79
2017-12-11 20:00:00 5.9 19 Noroeste 42 Oeste 0 -- -- 75
2017-12-11 19:00:00 6.9 26 Noroeste 45 Oeste 0 -- -- 70
2017-12-11 18:00:00 7.5 11 Noroeste 17 Noroeste 0 -- -- 70
2017-12-11 17:00:00 8.2 10 Noroeste 18 Oeste 0 -- -- 68
2017-12-11 16:00:00 9 13 Oeste 23 Noroeste 0 -- -- 66
2017-12-11 15:00:00 9.4 11 Noroeste 26 Oeste 0 -- -- 69
2017-12-11 14:00:00 8.3 15 Noroeste 31 Noroeste 0.4 -- -- 74
2017-12-11 13:00:00 7.6 13 Noroeste 28 Noroeste 0 -- -- 70
2017-12-11 12:00:00 6.6 14 Noroeste 31 Oeste 0 -- -- 73
2017-12-11 11:00:00 7.1 13 Noroeste 34 Oeste 0 -- -- 76
2017-12-11 10:00:00 7.3 20 Oeste 36 Oeste 0 -- -- 74
2017-12-11 09:00:00 7.1 8 Oeste 22 Noroeste 0 -- -- 75
2017-12-11 08:00:00 7.7 20 Oeste 47 Oeste 0.2 -- -- 73
2017-12-11 07:00:00 8.9 22 Oeste 30 Oeste 0 -- -- 72
2017-12-11 06:00:00 9.9 19 Oeste 44 Oeste 0 -- -- 77
2017-12-11 05:00:00 11.9 26 Oeste 54 Oeste 0 -- -- 75
2017-12-11 04:00:00 13.9 15 Sudoeste 47 Sudoeste 0 -- -- 59
2017-12-11 03:00:00 14 21 Sudoeste 48 Sur 0 -- -- 58
2017-12-11 02:00:00 13.9 31 Sudoeste 55 Sur 0 -- -- 60
2017-12-11 01:00:00 13.5 24 Sudoeste 56 Sur 0 -- -- 61
2017-12-11 00:00:00 13.3 26 Sudoeste 49 Sur 0.2 -- -- 63
2017-12-10 23:00:00 13 23 Sudoeste 42 Sur 0 -- -- 66
2017-12-10 22:00:00 13 25 Sudoeste 42 Sur 0 -- -- 67
2017-12-10 21:00:00 12.6 21 Sudoeste 41 Sudoeste 0 -- -- 70
2017-12-10 20:00:00 12.1 24 Sudoeste 44 Sudoeste 0 -- -- 71
2017-12-10 19:00:00 11.8 22 Sudoeste 48 Sudoeste 0 -- -- 71
2017-12-10 18:00:00 11.7 26 Sudoeste 42 Oeste 0 -- -- 71
2017-12-10 17:00:00 11.7 20 Sudoeste 41 Sudoeste 0 -- -- 73
2017-12-10 16:00:00 11.1 18 Oeste 34 Oeste 0.4 -- -- 79
2017-12-10 15:00:00 10.1 4 Este 15 Este 0.4 -- -- 87
2017-12-10 14:00:00 9.8 10 Este 18 Este 0.8 -- -- 87
2017-12-10 13:00:00 11.7 2 Este 7 Este 0.2 -- -- 76
2017-12-10 12:00:00 11.4 3 Noroeste 17 Oeste 0 -- -- 71
2017-12-10 11:00:00 11.1 14 Oeste 20 Oeste 0 -- -- 72
2017-12-10 10:00:00 9.4 8 Noroeste 21 Sudoeste 0 -- -- 76
2017-12-10 09:00:00 8.1 13 Oeste 20 Oeste 0 -- -- 80
2017-12-10 08:00:00 8 6 Oeste 17 Oeste 0 -- -- 80
2017-12-10 07:00:00 7.8 10 Oeste 21 Oeste 0 -- -- 81
2017-12-10 06:00:00 5.7 8 Este 11 Este 0 -- -- 91
2017-12-10 05:00:00 4.9 10 Nordeste 15 Este 0 -- -- 90
2017-12-10 04:00:00 4.6 11 Nordeste 16 Nordeste 0 -- -- 89
2017-12-10 03:00:00 5.1 10 Nordeste 18 Este 0 -- -- 86
2017-12-10 02:00:00 5.1 14 Este 19 Este 0 -- -- 85
2017-12-10 01:00:00 5.5 14 Este 19 Este 0 -- -- 85
2017-12-10 00:00:00 6.2 8 Nordeste 11 Nordeste 0 -- -- 86
2017-12-09 23:00:00 6.1 8 Nordeste 15 Este 0 -- -- 86
2017-12-09 22:00:00 4.9 9 Nordeste 12 Nordeste 0.2 -- -- 91
2017-12-09 21:00:00 5.2 9 Nordeste 14 Nordeste 0 -- -- 88
2017-12-09 20:00:00 4.9 9 Nordeste 10 Nordeste 0.2 -- -- 86
2017-12-09 19:00:00 5.9 4 Nordeste 5 Este 0 -- -- 73
2017-12-09 18:00:00 6.7 0 Calma 11 Noroeste 0 -- -- 69
2017-12-09 17:00:00 7.5 7 Oeste 23 Noroeste 0 -- -- 67
2017-12-09 16:00:00 8.1 13 Noroeste 32 Oeste 0 -- -- 62
2017-12-09 15:00:00 8.4 16 Noroeste 37 Oeste 0 -- -- 62
2017-12-09 14:00:00 7.7 27 Oeste 42 Oeste 0 -- -- 65
2017-12-09 13:00:00 7.7 27 Oeste 45 Oeste 0 -- -- 63
2017-12-09 12:00:00 7.5 24 Oeste 39 Oeste 0 -- -- 62
2017-12-09 11:00:00 5.2 22 Oeste 39 Oeste 0 -- -- 78
2017-12-09 10:00:00 3.6 22 Oeste 38 Noroeste 0 -- -- 84
2017-12-09 09:00:00 4.2 16 Noroeste 36 Oeste 0 -- -- 80
2017-12-09 08:00:00 3.9 17 Noroeste 34 Oeste 0 -- -- 79
2017-12-09 07:00:00 3.9 17 Oeste 37 Oeste 0 -- -- 84
2017-12-09 06:00:00 4 19 Oeste 37 Oeste 0 -- -- 85
2017-12-09 05:00:00 4.2 23 Noroeste 38 Noroeste 0 -- -- 87
2017-12-09 04:00:00 4.5 22 Oeste 42 Noroeste 0 -- -- 86
2017-12-09 03:00:00 4.5 24 Oeste 42 Oeste 0 -- -- 86
2017-12-09 02:00:00 4.6 23 Oeste 41 Noroeste 0 -- -- 87
2017-12-09 01:00:00 5.1 21 Noroeste 38 Noroeste 0 -- -- 85
2017-12-09 00:00:00 5.6 22 Oeste 36 Oeste 0 -- -- 85
2017-12-08 23:00:00 6.2 18 Noroeste 39 Oeste 0 -- -- 81
2017-12-08 22:00:00 6.5 19 Noroeste 32 Noroeste 0 -- -- 81
2017-12-08 21:00:00 6.7 16 Oeste 28 Noroeste 0 -- -- 79
2017-12-08 20:00:00 7.1 15 Oeste 32 Noroeste 0 -- -- 75
2017-12-08 19:00:00 7.8 14 Noroeste 30 Oeste 0 -- -- 79
2017-12-08 18:00:00 8.5 19 Oeste 41 Oeste 0 -- -- 79
2017-12-08 17:00:00 9.2 22 Oeste 38 Noroeste 0 -- -- 77
2017-12-08 16:00:00 9.5 27 Oeste 49 Oeste 0 -- -- 77
2017-12-08 15:00:00 10.6 25 Oeste 51 Oeste 0 -- -- 73
2017-12-08 14:00:00 9.1 24 Oeste 34 Oeste 0 -- -- 76
2017-12-08 13:00:00 7.2 22 Oeste 31 Oeste 0 -- -- 80
2017-12-08 12:00:00 6.1 16 Oeste 24 Oeste 0 -- -- 82
2017-12-08 11:00:00 4.9 12 Oeste 22 Noroeste 0 -- -- 81
2017-12-08 10:00:00 4.6 10 Oeste 15 Oeste 0 -- -- 79
2017-12-08 09:00:00 3.5 6 Oeste 13 Noroeste 0 -- -- 81
2017-12-08 08:00:00 2.7 5 Oeste 9 Oeste 0 -- -- 83
2017-12-08 07:00:00 2.8 7 Oeste 9 Oeste 0 -- -- 81
2017-12-08 06:00:00 2.2 3 Este 6 Este 0 -- -- 82
2017-12-08 05:00:00 1.6 2 Nordeste 12 Nordeste 0 -- -- 81
2017-12-08 04:00:00 2.1 5 Nordeste 6 Nordeste 0 -- -- 80
2017-12-08 03:00:00 2.9 0 Calma 6 Nordeste 0 -- -- 77
2017-12-08 02:00:00 2.6 4 Este 7 Este 0 -- -- 77
2017-12-08 01:00:00 1.8 4 Este 6 Nordeste 0 -- -- 78
2017-12-08 00:00:00 2 5 Nordeste 13 Nordeste 0 -- -- 76
2017-12-07 23:00:00 1.4 13 Nordeste 15 Nordeste 0 -- -- 83
2017-12-07 22:00:00 2.7 6 Este 11 Nordeste 0 -- -- 80
2017-12-07 21:00:00 3.8 6 Este 12 Este 0 -- -- 79
2017-12-07 20:00:00 2.6 10 Nordeste 12 Este 0 -- -- 84
2017-12-07 19:00:00 2.3 5 Este 6 Nordeste 0 -- -- 83
2017-12-07 18:00:00 3.2 7 Oeste 15 Oeste 0 -- -- 80
2017-12-07 17:00:00 6.6 12 Oeste 14 Oeste 0 -- -- 71
2017-12-07 16:00:00 9.4 7 Este 12 Este 0 -- -- 57
2017-12-07 15:00:00 7.6 6 Este 23 Oeste 0 -- -- 69
2017-12-07 14:00:00 5.8 18 Oeste 27 Oeste 0 -- -- 76
2017-12-07 13:00:00 8.3 6 Este 12 Este 0 -- -- 60
2017-12-07 12:00:00 3.8 5 Sudoeste 10 Oeste 0 -- -- 88
2017-12-07 11:00:00 2.5 3 Sudoeste 8 Nordeste 0 -- -- 92
2017-12-07 10:00:00 0.6 6 Este 9 Nordeste 0 -- -- 93
2017-12-07 09:00:00 -0.6 3 Este 12 Nordeste 0 -- -- 93
2017-12-07 08:00:00 -0.6 7 Nordeste 12 Nordeste 0 -- -- 94
2017-12-07 07:00:00 -0.3 4 Nordeste 12 Nordeste 0 -- -- 92
2017-12-07 06:00:00 0.3 9 Nordeste 11 Nordeste 0 -- -- 90
2017-12-07 05:00:00 0.3 6 Nordeste 13 Nordeste 0 -- -- 91
2017-12-07 04:00:00 0 9 Nordeste 12 Nordeste 0 -- -- 92
2017-12-07 03:00:00 -0.8 12 Nordeste 16 Nordeste 0 -- -- 93
2017-12-07 02:00:00 -0.2 12 Nordeste 13 Nordeste 0 -- -- 91
2017-12-07 01:00:00 0.4 11 Nordeste 13 Este 0 -- -- 86
2017-12-07 00:00:00 1.1 10 Nordeste 13 Nordeste 0 -- -- 86
2017-12-06 23:00:00 0.4 11 Nordeste 16 Nordeste 0 -- -- 90
2017-12-06 22:00:00 0.2 12 Nordeste 14 Nordeste 0 -- -- 90
2017-12-06 21:00:00 0.5 10 Nordeste 13 Nordeste 0 -- -- 86
2017-12-06 20:00:00 0.8 11 Nordeste 14 Nordeste 0 -- -- 85
2017-12-06 19:00:00 1.3 9 Nordeste 11 Nordeste 0 -- -- 84
2017-12-06 18:00:00 4.1 3 Este 8 Oeste 0 -- -- 74
2017-12-06 17:00:00 6.6 7 Oeste 14 Oeste 0 -- -- 68
2017-12-06 16:00:00 7.5 13 Oeste 16 Sudoeste 0 -- -- 66
2017-12-06 15:00:00 7.8 10 Oeste 16 Oeste 0 -- -- 66
2017-12-06 14:00:00 6.9 11 Oeste 16 Sudoeste 0 -- -- 70
2017-12-06 13:00:00 5.7 10 Oeste 16 Oeste 0 -- -- 73
2017-12-06 12:00:00 4.2 12 Oeste 15 Oeste 0 -- -- 81
2017-12-06 11:00:00 2.5 8 Oeste 12 Oeste 0 -- -- 86
2017-12-06 10:00:00 2.2 2 Este 12 Nordeste 0 -- -- 91
2017-12-06 09:00:00 0.2 10 Nordeste 13 Nordeste 0 -- -- 93
2017-12-06 08:00:00 -0.2 9 Nordeste 13 Nordeste 0 -- -- 92
2017-12-06 07:00:00 -0.2 9 Nordeste 14 Nordeste 0 -- -- 91
2017-12-06 06:00:00 -0.6 12 Nordeste 14 Nordeste 0 -- -- 91
2017-12-06 05:00:00 -0.1 9 Nordeste 12 Nordeste 0 -- -- 90
2017-12-06 04:00:00 -0.4 10 Nordeste 13 Nordeste 0 -- -- 90
2017-12-06 03:00:00 0 12 Nordeste 13 Nordeste 0 -- -- 90
2017-12-06 02:00:00 0.8 11 Nordeste 14 Nordeste 0 -- -- 90
2017-12-06 01:00:00 0.7 11 Nordeste 14 Nordeste 0 -- -- 90
2017-12-06 00:00:00 0.7 9 Nordeste 15 Nordeste 0 -- -- 87
2017-12-05 23:00:00 1.2 11 Nordeste 14 Nordeste 0 -- -- 87
2017-12-05 22:00:00 0.8 10 Nordeste 14 Nordeste 0 -- -- 85
2017-12-05 21:00:00 1.5 10 Nordeste 13 Nordeste 0 -- -- 82
2017-12-05 20:00:00 1 11 Nordeste 14 Nordeste 0 -- -- 82
2017-12-05 19:00:00 2.8 8 Nordeste 10 Nordeste 0 -- -- 74
2017-12-05 18:00:00 4.9 2 Este 8 Oeste 0 -- -- 68
2017-12-05 17:00:00 7.6 7 Oeste 14 Sudoeste 0 -- -- 60
2017-12-05 16:00:00 8 10 Sudoeste 15 Oeste 0 -- -- 58
2017-12-05 15:00:00 7.6 8 Oeste 17 Oeste 0 -- -- 62
2017-12-05 14:00:00 6.8 11 Oeste 20 Oeste 0 -- -- 67
2017-12-05 13:00:00 6.1 14 Oeste 20 Oeste 0 -- -- 70
2017-12-05 12:00:00 4.9 8 Oeste 14 Oeste 0 -- -- 76
2017-12-05 11:00:00 3.4 8 Oeste 13 Oeste 0 -- -- 84
2017-12-05 10:00:00 2.6 0 Calma 6 Este 0 -- -- 89
2017-12-05 09:00:00 0.4 5 Este 8 Nordeste 0 -- -- 94
2017-12-05 08:00:00 -0.2 2 Nordeste 6 Nordeste 0 -- -- 93
2017-12-05 07:00:00 -0.2 0 Calma 4 Este 0 -- -- 92
2017-12-05 06:00:00 0.2 0 Calma 6 Este 0 -- -- 92
2017-12-05 05:00:00 0.7 0 Calma 4 Este 0 -- -- 92
2017-12-05 04:00:00 0.7 0 Calma 5 Oeste 0 -- -- 89
2017-12-05 03:00:00 1.2 4 Oeste 7 Noroeste 0 -- -- 90
2017-12-05 02:00:00 1.3 3 Oeste 9 Oeste 0 -- -- 90
2017-12-05 01:00:00 1.6 7 Oeste 14 Oeste 0 -- -- 89
2017-12-05 00:00:00 1.9 9 Oeste 12 Oeste 0 -- -- 89
2017-12-04 23:00:00 2.3 6 Oeste 12 Oeste 0 -- -- 87
2017-12-04 22:00:00 2.8 9 Oeste 12 Oeste 0 -- -- 86
2017-12-04 21:00:00 3.3 8 Oeste 12 Oeste 0 -- -- 85
2017-12-04 20:00:00 3.6 10 Oeste 21 Noroeste 0 -- -- 83
2017-12-04 19:00:00 6 14 Noroeste 30 Oeste 0 -- -- 76
2017-12-04 18:00:00 7 19 Oeste 30 Oeste 0 -- -- 72
2017-12-04 17:00:00 8.7 26 Oeste 41 Oeste 0 -- -- 67
2017-12-04 16:00:00 9.7 28 Oeste 37 Oeste 0 -- -- 63
2017-12-04 15:00:00 10.7 20 Oeste 38 Oeste 0 -- -- 53
2017-12-04 14:00:00 9.4 19 Oeste 32 Noroeste 0 -- -- 60
2017-12-04 13:00:00 8.5 18 Oeste 32 Oeste 0 -- -- 69
2017-12-04 12:00:00 6.9 18 Oeste 37 Oeste 0 -- -- 79
2017-12-04 11:00:00 5.9 18 Oeste 32 Oeste 0 -- -- 85
2017-12-04 10:00:00 3.9 12 Oeste 18 Oeste 0 -- -- 95
2017-12-04 09:00:00 2.2 6 Oeste 12 Oeste 0 -- -- 95
2017-12-04 08:00:00 2.3 2 Noroeste 12 Oeste 0 -- -- 95
2017-12-04 07:00:00 1.9 4 Oeste 16 Oeste 0 -- -- 94
2017-12-04 06:00:00 2.4 9 Oeste 26 Oeste 0 -- -- 93
2017-12-04 05:00:00 2.9 14 Oeste 23 Oeste 0 -- -- 94
2017-12-04 04:00:00 2.2 5 Oeste 14 Sudoeste 0 -- -- 92
2017-12-04 03:00:00 3 5 Sudoeste 27 Oeste 0 -- -- 91
2017-12-04 02:00:00 3.3 15 Oeste 33 Oeste 0 -- -- 90
2017-12-04 01:00:00 1.3 9 Oeste 28 Oeste 0 -- -- 91
2017-12-04 00:00:00 2.2 18 Oeste 28 Oeste 0 -- -- 87
2017-12-03 23:00:00 2.8 16 Oeste 30 Oeste 0 -- -- 80
2017-12-03 22:00:00 3 18 Oeste 32 Noroeste 0 -- -- 76
2017-12-03 21:00:00 1.4 9 Oeste 26 Oeste 0 -- -- 69
2017-12-03 20:00:00 2.3 11 Oeste 28 Oeste 0 -- -- 62
2017-12-03 19:00:00 2.5 15 Oeste 42 Noroeste 0 -- -- 54
2017-12-03 18:00:00 3.2 22 Noroeste 41 Noroeste 0 -- -- 46
2017-12-03 17:00:00 4.2 27 Noroeste 49 Noroeste 0 -- -- 37
2017-12-03 16:00:00 5.3 21 Oeste 39 Noroeste 0 -- -- 33
2017-12-03 15:00:00 4.5 22 Noroeste 44 Oeste 0 -- -- 35
2017-12-03 14:00:00 5.5 25 Noroeste 45 Oeste 0 -- -- 33
2017-12-03 13:00:00 4 22 Oeste 50 Oeste 0 -- -- 46
2017-12-03 12:00:00 3.6 26 Oeste 41 Oeste 0 -- -- 48
2017-12-03 11:00:00 1.9 25 Oeste 38 Oeste 0 -- -- 52
2017-12-03 10:00:00 0.2 21 Oeste 36 Oeste 0 -- -- 60
2017-12-03 09:00:00 -2.5 17 Oeste 28 Oeste 0 -- -- 73
2017-12-03 08:00:00 -3.7 14 Oeste 28 Oeste 0 -- -- 75
2017-12-03 07:00:00 -2.6 20 Oeste 35 Oeste 0 -- -- 70
2017-12-03 06:00:00 -2.4 21 Oeste 35 Sudoeste 0 -- -- 70
2017-12-03 05:00:00 -2.1 24 Oeste 35 Oeste 0 -- -- 70
2017-12-03 04:00:00 -2.2 18 Oeste 36 Oeste 0 -- -- 73
2017-12-03 03:00:00 -1.8 21 Oeste 51 Oeste 0 -- -- 71
2017-12-03 02:00:00 -1 28 Noroeste 41 Noroeste 0 -- -- 65
2017-12-03 01:00:00 -1 23 Oeste 45 Noroeste 0 -- -- 64
2017-12-03 00:00:00 -0.4 28 Noroeste 48 Noroeste 0 -- -- 59
2017-12-02 23:00:00 -0.2 23 Noroeste 40 Noroeste 0 -- -- 59
2017-12-02 22:00:00 0 23 Noroeste 42 Oeste 0 -- -- 61
2017-12-02 21:00:00 0.1 22 Noroeste 46 Oeste 0 -- -- 63
2017-12-02 20:00:00 0.4 24 Noroeste 44 Noroeste 0 -- -- 62
2017-12-02 19:00:00 0.6 27 Noroeste 46 Noroeste 0 -- -- 61
2017-12-02 18:00:00 1.3 21 Noroeste 44 Noroeste 0 -- -- 59
2017-12-02 17:00:00 3.3 22 Noroeste 58 Noroeste 0 -- -- 52
2017-12-02 16:00:00 4.3 36 Noroeste 63 Noroeste 0 -- -- 47
2017-12-02 15:00:00 5 31 Noroeste 56 Noroeste 0 -- -- 48
2017-12-02 14:00:00 4.8 23 Noroeste 52 Noroeste 0 -- -- 54
2017-12-02 13:00:00 4.4 32 Noroeste 49 Noroeste 0 -- -- 49
2017-12-02 12:00:00 3.2 23 Noroeste 53 Oeste 0 -- -- 53
2017-12-02 11:00:00 1.5 18 Oeste 44 Oeste 0 -- -- 65
2017-12-02 10:00:00 -0.1 23 Oeste 42 Noroeste 0 -- -- 68
2017-12-02 09:00:00 -1.5 22 Oeste 30 Oeste 0 -- -- 77
2017-12-02 08:00:00 -1.4 18 Oeste 33 Noroeste 0 -- -- 78
2017-12-02 07:00:00 -0.8 18 Noroeste 33 Oeste 0 -- -- 83
2017-12-02 06:00:00 -0.4 20 Oeste 40 Noroeste 0 -- -- 89
2017-12-02 05:00:00 -0.1 23 Noroeste 45 Noroeste 0 -- -- 95
2017-12-02 04:00:00 0 24 Oeste 49 Oeste 0 -- -- 95
2017-12-02 03:00:00 -0.1 23 Oeste 43 Oeste 0 -- -- 96
2017-12-02 02:00:00 -0.1 22 Oeste 45 Oeste 0 -- -- 95
2017-12-02 01:00:00 -0.2 24 Noroeste 46 Noroeste 0 -- -- 94
2017-12-02 00:00:00 -0.2 21 Noroeste 42 Oeste 0 -- -- 93
2017-12-01 23:00:00 -0.3 22 Noroeste 40 Oeste 0 -- -- 91
2017-12-01 22:00:00 -0.2 20 Noroeste 37 Oeste 0 -- -- 84
2017-12-01 21:00:00 -0.2 25 Oeste 44 Oeste 0 -- -- 86
2017-12-01 20:00:00 -0.2 26 Oeste 43 Oeste 0 -- -- 89
2017-12-01 19:00:00 -0.1 22 Noroeste 41 Noroeste 0 -- -- 82
2017-12-01 18:00:00 0.3 21 Noroeste 48 Oeste 0 -- -- 76
2017-12-01 17:00:00 1.4 20 Oeste 40 Noroeste 0 -- -- 70
2017-12-01 16:00:00 2.8 20 Noroeste 48 Oeste 0 -- -- 54
2017-12-01 15:00:00 3.8 28 Noroeste 50 Noroeste 0 -- -- 50
2017-12-01 14:00:00 3.8 23 Noroeste 49 Noroeste 0 -- -- 58
2017-12-01 13:00:00 2.9 25 Noroeste 48 Noroeste 0 -- -- 68
2017-12-01 12:00:00 1.1 30 Oeste 42 Oeste 0 -- -- 86
2017-12-01 11:00:00 1.5 13 Noroeste 32 Noroeste 0.2 -- -- 84
2017-12-01 10:00:00 0.8 22 Noroeste 53 Oeste 2.2 -- -- 93
2017-12-01 09:00:00 3.3 29 Oeste 47 Oeste 0.4 -- -- 88
2017-12-01 08:00:00 3.6 27 Oeste 47 Noroeste 0 -- -- 79
2017-12-01 07:00:00 3.5 28 Oeste 50 Oeste 0 -- -- 80
2017-12-01 06:00:00 4.1 27 Oeste 51 Oeste 0 -- -- 77
2017-12-01 05:00:00 4.2 24 Oeste 48 Oeste 0 -- -- 77
2017-12-01 04:00:00 4.2 24 Oeste 48 Noroeste 0 -- -- 76
2017-12-01 03:00:00 4.2 26 Oeste 44 Oeste 0 -- -- 75
2017-12-01 02:00:00 4 27 Oeste 42 Oeste 0 -- -- 75
2017-12-01 01:00:00 3.8 22 Noroeste 41 Noroeste 0 -- -- 76
2017-12-01 00:00:00 2.5 14 Oeste 27 Oeste 0 -- -- 84
2017-11-30 23:00:00 1.9 11 Oeste 23 Noroeste 0 -- -- 85
2017-11-30 22:00:00 1.9 9 Oeste 23 Noroeste 0 -- -- 84
2017-11-30 21:00:00 3.5 13 Noroeste 27 Oeste 0 -- -- 80
2017-11-30 20:00:00 4.2 15 Oeste 32 Oeste 0 -- -- 76
2017-11-30 19:00:00 4.7 19 Oeste 31 Noroeste 0 -- -- 74
2017-11-30 18:00:00 5.2 21 Oeste 36 Noroeste 0 -- -- 65
2017-11-30 17:00:00 7 18 Noroeste 50 Oeste 0 -- -- 55
2017-11-30 16:00:00 7.5 23 Noroeste 43 Oeste 0 -- -- 52
2017-11-30 15:00:00 7.5 22 Oeste 43 Oeste 0 -- -- 55
2017-11-30 14:00:00 7.3 26 Oeste 45 Oeste 0 -- -- 55
2017-11-30 13:00:00 6.7 22 Noroeste 40 Noroeste 0 -- -- 59
2017-11-30 12:00:00 5.7 18 Oeste 42 Oeste 0 -- -- 64
2017-11-30 11:00:00 4.1 24 Noroeste 42 Noroeste 0 -- -- 73
2017-11-30 10:00:00 2.6 21 Oeste 36 Oeste 0 -- -- 73
2017-11-30 09:00:00 1.9 25 Noroeste 35 Noroeste 0 -- -- 75
2017-11-30 08:00:00 1.1 21 Noroeste 34 Oeste 0 -- -- 78
2017-11-30 07:00:00 0.7 23 Oeste 33 Noroeste 0 -- -- 83
2017-11-30 06:00:00 0.7 16 Noroeste 27 Noroeste 0 -- -- 83
2017-11-30 05:00:00 0.1 15 Oeste 37 Oeste 0 -- -- 82
2017-11-30 04:00:00 1.1 17 Noroeste 36 Noroeste 0 -- -- 80
2017-11-30 03:00:00 1.5 27 Noroeste 42 Noroeste 0 -- -- 79
2017-11-30 02:00:00 1.7 23 Noroeste 43 Noroeste 0 -- -- 79
2017-11-30 01:00:00 1.9 23 Noroeste 41 Oeste 0 -- -- 81
2017-11-30 00:00:00 2 15 Oeste 36 Oeste 0 -- -- 80
2017-11-29 23:00:00 1.8 19 Oeste 49 Noroeste 0 -- -- 83
2017-11-29 22:00:00 2.4 24 Oeste 46 Oeste 0 -- -- 80
2017-11-29 21:00:00 2.9 19 Noroeste 41 Oeste 0 -- -- 78
2017-11-29 20:00:00 3.5 21 Noroeste 37 Noroeste 0 -- -- 74
2017-11-29 19:00:00 4.4 21 Oeste 39 Oeste 0 -- -- 72
2017-11-29 18:00:00 5.7 19 Noroeste 35 Oeste 0 -- -- 67
2017-11-29 17:00:00 7.6 17 Noroeste 45 Oeste 0 -- -- 60
2017-11-29 16:00:00 8.8 26 Oeste 52 Oeste 0 -- -- 55
2017-11-29 15:00:00 9.3 24 Noroeste 50 Oeste 0 -- -- 56
2017-11-29 14:00:00 8.4 32 Oeste 48 Oeste 0 -- -- 64
2017-11-29 13:00:00 8.4 25 Oeste 46 Oeste 0 -- -- 64
2017-11-29 12:00:00 7.5 32 Oeste 46 Oeste 0 -- -- 70
2017-11-29 11:00:00 7 20 Oeste 35 Noroeste 0 -- -- 72
2017-11-29 10:00:00 5.6 20 Oeste 31 Noroeste 0 -- -- 78
2017-11-29 09:00:00 4.7 19 Oeste 31 Oeste 0 -- -- 82
2017-11-29 08:00:00 3.5 9 Oeste 27 Oeste 0 -- -- 82
2017-11-29 07:00:00 3.9 10 Noroeste 23 Oeste 0 -- -- 86
2017-11-29 06:00:00 4.3 10 Oeste 20 Oeste 0 -- -- 85
2017-11-29 05:00:00 3.9 12 Oeste 21 Noroeste 0 -- -- 86
2017-11-29 04:00:00 3.2 3 Oeste 12 Noroeste 0 -- -- 79
2017-11-29 03:00:00 3.5 8 Oeste 18 Oeste 0 -- -- 76
2017-11-29 02:00:00 4.1 10 Oeste 18 Noroeste 0 -- -- 75
2017-11-29 01:00:00 4.4 4 Oeste 13 Oeste 0 -- -- 74
2017-11-29 00:00:00 4.4 0 Calma 6 Noroeste 0 -- -- 73
2017-11-28 23:00:00 3.7 3 Este 6 Este 0 -- -- 76
2017-11-28 22:00:00 3.5 0 Calma 8 Este 0 -- -- 76
2017-11-28 21:00:00 3.4 4 Este 8 Este 0 -- -- 77
2017-11-28 20:00:00 3.5 2 Norte 5 Este 0 -- -- 71
2017-11-28 19:00:00 5.1 5 Este 6 Este 0 -- -- 68
2017-11-28 18:00:00 6.9 3 Oeste 12 Sudoeste 0 -- -- 63
2017-11-28 17:00:00 9.4 8 Sudoeste 15 Oeste 0 -- -- 55
2017-11-28 16:00:00 9.9 13 Oeste 23 Sudoeste 0 -- -- 54
2017-11-28 15:00:00 10 17 Oeste 25 Oeste 0 -- -- 51
2017-11-28 14:00:00 8.8 15 Noroeste 26 Oeste 0 -- -- 54
2017-11-28 13:00:00 6.8 20 Oeste 27 Oeste 0 -- -- 66
2017-11-28 12:00:00 5.9 19 Oeste 26 Oeste 0 -- -- 70
2017-11-28 11:00:00 4.9 17 Oeste 26 Sudoeste 0 -- -- 74
2017-11-28 10:00:00 2.1 6 Oeste 9 Oeste 0 -- -- 84
2017-11-28 09:00:00 -0.1 0 Calma 3 Este 0 -- -- 91
2017-11-28 08:00:00 -1.2 0 Calma 6 Este 0 -- -- 89
2017-11-28 07:00:00 -0.9 3 Nordeste 8 Nordeste 0 -- -- 88
2017-11-28 06:00:00 0 0 Calma 8 Nordeste 0 -- -- 87
2017-11-28 05:00:00 0.5 7 Nordeste 12 Nordeste 0 -- -- 86
2017-11-28 04:00:00 0.3 8 Nordeste 12 Nordeste 0 -- -- 79
2017-11-28 03:00:00 -0.3 11 Este 14 Nordeste 0 -- -- 84
2017-11-28 02:00:00 0.8 10 Nordeste 13 Este 0 -- -- 82
2017-11-28 01:00:00 1.8 9 Nordeste 12 Nordeste 0 -- -- 77
2017-11-28 00:00:00 1.4 9 Nordeste 13 Este 0 -- -- 78
2017-11-27 23:00:00 3 8 Nordeste 13 Nordeste 0 -- -- 75
2017-11-27 22:00:00 3.2 10 Nordeste 14 Nordeste 0 -- -- 69
2017-11-27 21:00:00 3 9 Nordeste 13 Nordeste 0 -- -- 75
2017-11-27 20:00:00 4 10 Nordeste 17 Nordeste 0 -- -- 71
2017-11-27 19:00:00 3.7 12 Nordeste 14 Nordeste 0 -- -- 71
2017-11-27 18:00:00 6.6 5 Este 8 Este 0 -- -- 59
2017-11-27 17:00:00 8.4 5 Sudeste 12 Oeste 0 -- -- 53
2017-11-27 16:00:00 9.2 11 Oeste 21 Oeste 0 -- -- 50
2017-11-27 15:00:00 11.6 4 Sudeste 11 Sudeste 0 -- -- 46
2017-11-27 14:00:00 9.6 5 Sudeste 12 Sudoeste 0 -- -- 57
2017-11-27 13:00:00 7 10 Oeste 15 Oeste 0 -- -- 65
2017-11-27 12:00:00 6.4 3 Sudoeste 10 Oeste 0 -- -- 68
2017-11-27 11:00:00 5.5 5 Sudoeste 9 Oeste 0 -- -- 71
2017-11-27 10:00:00 2.1 6 Nordeste 10 Nordeste 0 -- -- 91
2017-11-27 09:00:00 0 8 Nordeste 11 Nordeste 0 -- -- 91
2017-11-27 08:00:00 0.1 7 Nordeste 10 Este 0 -- -- 90
2017-11-27 07:00:00 0.2 5 Este 10 Nordeste 0 -- -- 91
2017-11-27 06:00:00 0.3 3 Este 8 Oeste 0 -- -- 89
2017-11-27 05:00:00 1.1 2 Oeste 6 Noroeste 0 -- -- 88
2017-11-27 04:00:00 1.6 2 Oeste 5 Oeste 0 -- -- 86
2017-11-27 03:00:00 2.1 3 Oeste 18 Oeste 0 -- -- 82
2017-11-27 02:00:00 3.2 9 Noroeste 16 Noroeste 0 -- -- 79
2017-11-27 01:00:00 2.9 8 Oeste 19 Oeste 0 -- -- 82
2017-11-27 00:00:00 3 11 Oeste 26 Oeste 0 -- -- 82
2017-11-26 23:00:00 3.7 19 Oeste 37 Oeste 0 -- -- 80
2017-11-26 22:00:00 4.3 20 Oeste 37 Oeste 0 -- -- 77
2017-11-26 21:00:00 4.6 18 Oeste 35 Oeste 0 -- -- 74
2017-11-26 20:00:00 5.4 18 Oeste 36 Oeste 0 -- -- 68
2017-11-26 19:00:00 6 19 Oeste 35 Noroeste 0 -- -- 65
2017-11-26 18:00:00 6.9 22 Noroeste 42 Oeste 0 -- -- 60
2017-11-26 17:00:00 8.6 18 Noroeste 45 Noroeste 0 -- -- 55
2017-11-26 16:00:00 9.2 24 Noroeste 55 Oeste 0 -- -- 53
2017-11-26 15:00:00 9.9 24 Noroeste 57 Oeste 0 -- -- 51
2017-11-26 14:00:00 9.6 32 Oeste 50 Oeste 0 -- -- 52
2017-11-26 13:00:00 8.9 27 Oeste 50 Oeste 0 -- -- 62
2017-11-26 12:00:00 7.9 23 Oeste 51 Oeste 0 -- -- 66
2017-11-26 11:00:00 6.8 34 Oeste 52 Oeste 0 -- -- 70
2017-11-26 10:00:00 5.4 27 Oeste 44 Noroeste 0 -- -- 78
2017-11-26 09:00:00 4.6 23 Oeste 35 Oeste 0 -- -- 80
2017-11-26 08:00:00 4 21 Oeste 37 Noroeste 0 -- -- 82
2017-11-26 07:00:00 3.9 19 Noroeste 41 Noroeste 0 -- -- 82
2017-11-26 06:00:00 3.8 20 Noroeste 40 Oeste 0 -- -- 82
2017-11-26 05:00:00 4 23 Noroeste 41 Oeste 0 -- -- 81
2017-11-26 04:00:00 3.9 22 Oeste 41 Oeste 0 -- -- 81
2017-11-26 03:00:00 4 19 Noroeste 40 Noroeste 0 -- -- 80
2017-11-26 02:00:00 4.4 24 Noroeste 42 Noroeste 0 -- -- 77
2017-11-26 01:00:00 4.6 21 Noroeste 42 Noroeste 0 -- -- 74
2017-11-26 00:00:00 4.7 24 Noroeste 42 Oeste 0 -- -- 72
2017-11-25 23:00:00 5.2 23 Noroeste 43 Noroeste 0 -- -- 67
2017-11-25 22:00:00 5 23 Oeste 43 Oeste 0 -- -- 69
2017-11-25 21:00:00 5.2 26 Oeste 41 Oeste 0 -- -- 72
2017-11-25 20:00:00 5.8 21 Oeste 38 Oeste 0 -- -- 73
2017-11-25 19:00:00 6.6 21 Oeste 45 Oeste 0 -- -- 69
2017-11-25 18:00:00 7.6 25 Oeste 43 Oeste 0 -- -- 63
2017-11-25 17:00:00 9.7 28 Oeste 46 Oeste 0 -- -- 59
2017-11-25 16:00:00 10.8 32 Oeste 54 Oeste 0 -- -- 54
2017-11-25 15:00:00 11.8 28 Noroeste 54 Oeste 0 -- -- 57
2017-11-25 14:00:00 12.5 23 Noroeste 57 Noroeste 0 -- -- 57
2017-11-25 13:00:00 12 35 Oeste 54 Oeste 0 -- -- 65
2017-11-25 12:00:00 10.1 30 Oeste 48 Oeste 0 -- -- 80
2017-11-25 11:00:00 10.1 24 Oeste 41 Oeste 0 -- -- 78
2017-11-25 10:00:00 9.3 23 Oeste 39 Oeste 0 -- -- 90
2017-11-25 09:00:00 9.4 23 Oeste 40 Oeste 0 -- -- 92
2017-11-25 08:00:00 9.6 24 Oeste 36 Oeste 0 -- -- 91
2017-11-25 07:00:00 9.6 15 Oeste 28 Noroeste 0 -- -- 90
2017-11-25 06:00:00 10.7 13 Oeste 37 Oeste 0 -- -- 82
2017-11-25 05:00:00 12.4 6 Oeste 18 Noroeste 0.2 -- -- 72
2017-11-25 04:00:00 12.1 7 Este 13 Este 0 -- -- 70
2017-11-25 03:00:00 11.6 8 Este 14 Este 0 -- -- 72
2017-11-25 02:00:00 12.7 5 Nordeste 9 Nordeste 0 -- -- 67
2017-11-25 01:00:00 13.2 4 Este 9 Sur 0 -- -- 65
2017-11-25 00:00:00 13.8 5 Sur 17 Nordeste 0 -- -- 63
2017-11-24 23:00:00 13.3 10 Nordeste 15 Nordeste 0 -- -- 65
2017-11-24 22:00:00 12.9 8 Este 14 Este 0 -- -- 66
2017-11-24 21:00:00 12.4 13 Este 18 Nordeste 0 -- -- 65
2017-11-24 20:00:00 12.3 10 Nordeste 19 Nordeste 0 -- -- 66
2017-11-24 19:00:00 13.3 9 Este 12 Nordeste 0 -- -- 63
2017-11-24 18:00:00 14.3 7 Este 11 Nordeste 0 -- -- 59
2017-11-24 17:00:00 14.7 7 Nordeste 11 Nordeste 0 -- -- 58
2017-11-24 16:00:00 15 6 Nordeste 9 Nordeste 0 -- -- 57
2017-11-24 15:00:00 15.6 4 Sudeste 8 Sudeste 0 -- -- 52
2017-11-24 14:00:00 15.6 3 Sur 14 Sudoeste 0 -- -- 51
2017-11-24 13:00:00 16.4 7 Sur 13 Sur 0 -- -- 49
2017-11-24 12:00:00 16.2 4 Sudeste 11 Sudoeste 0 -- -- 46
2017-11-24 11:00:00 16.6 3 Sur 10 Sur 0 -- -- 43
2017-11-24 10:00:00 14.9 3 Sudeste 7 Este 0 -- -- 47
2017-11-24 09:00:00 13.4 3 Este 12 Este 0 -- -- 46
2017-11-24 08:00:00 12.7 9 Este 16 Sudeste 0 -- -- 50
2017-11-24 07:00:00 11.6 12 Nordeste 18 Nordeste 0 -- -- 56
2017-11-24 06:00:00 11.7 12 Nordeste 16 Este 0 -- -- 60
2017-11-24 05:00:00 13.3 9 Nordeste 13 Nordeste 0 -- -- 44
2017-11-24 04:00:00 13 7 Este 16 Nordeste 0 -- -- 46
2017-11-24 03:00:00 12.8 11 Este 19 Este 0 -- -- 46
2017-11-24 02:00:00 11.8 12 Nordeste 16 Este 0 -- -- 51
2017-11-24 01:00:00 12.4 9 Este 16 Este 0 -- -- 49
2017-11-24 00:00:00 11.9 11 Nordeste 17 Este 0 -- -- 53
2017-11-23 23:00:00 13 9 Nordeste 13 Nordeste 0 -- -- 48
2017-11-23 22:00:00 13.3 6 Nordeste 16 Nordeste 0 -- -- 48
2017-11-23 21:00:00 13.4 11 Nordeste 21 Nordeste 0 -- -- 50
2017-11-23 20:00:00 12.4 12 Este 20 Este 0 -- -- 55
2017-11-23 19:00:00 12.8 12 Este 19 Este 0 -- -- 53
2017-11-23 18:00:00 13.7 12 Nordeste 16 Nordeste 0 -- -- 52
2017-11-23 17:00:00 16 11 Este 20 Este 0 -- -- 45
2017-11-23 16:00:00 19 11 Este 19 Este 0 -- -- 39
2017-11-23 15:00:00 19.3 10 Este 17 Este 0 -- -- 37
2017-11-23 14:00:00 19.2 5 Sudoeste 18 Sudoeste 0 -- -- 36
2017-11-23 13:00:00 18.6 10 Este 18 Este 0 -- -- 39
2017-11-23 12:00:00 14.7 15 Este 21 Este 0 -- -- 49
2017-11-23 11:00:00 13.8 13 Este 23 Este 0 -- -- 50
2017-11-23 10:00:00 11.3 13 Este 23 Este 0 -- -- 62
2017-11-23 09:00:00 9.2 14 Este 23 Este 0 -- -- 70
2017-11-23 08:00:00 9.5 20 Este 28 Este 0 -- -- 73
2017-11-23 07:00:00 9.4 24 Este 31 Este 0 -- -- 76
2017-11-23 06:00:00 9.1 19 Este 26 Este 0 -- -- 77
2017-11-23 05:00:00 9.4 16 Este 26 Este 0 -- -- 74
2017-11-23 04:00:00 9.2 17 Este 23 Este 0 -- -- 69
2017-11-23 03:00:00 9.1 16 Este 27 Este 0 -- -- 63
2017-11-23 02:00:00 9.5 14 Nordeste 27 Este 0 -- -- 58
2017-11-23 01:00:00 9.1 19 Este 27 Este 0 -- -- 53
2017-11-23 00:00:00 9.4 22 Este 29 Este 0 -- -- 49
2017-11-22 23:00:00 9.3 14 Este 22 Este 0 -- -- 52
2017-11-22 22:00:00 9.7 6 Nordeste 29 Este 0 -- -- 54
2017-11-22 21:00:00 9.8 20 Este 36 Este 0 -- -- 56
2017-11-22 20:00:00 9.9 23 Este 32 Este 0 -- -- 55
2017-11-22 19:00:00 10.9 18 Este 24 Este 0 -- -- 54
2017-11-22 18:00:00 12.3 15 Este 23 Este 0 -- -- 50
2017-11-22 17:00:00 14.8 17 Este 26 Este 0 -- -- 41
2017-11-22 16:00:00 16.5 17 Este 23 Este 0 -- -- 35
2017-11-22 15:00:00 17.5 14 Este 21 Este 0 -- -- 34
2017-11-22 14:00:00 17.6 13 Sudeste 20 Este 0 -- -- 34
2017-11-22 13:00:00 16.5 4 Sur -- -- -- -- -- 36
2017-11-22 12:00:00 14.7 5 Sudeste 9 Sudeste 0 -- -- 39
2017-11-22 11:00:00 10.9 7 Oeste 18 Este 0 -- -- 53
2017-11-22 10:00:00 11.2 8 Este 15 Este 0 -- -- 50
2017-11-22 09:00:00 7.8 7 Este 15 Nordeste 0 -- -- 56
2017-11-22 08:00:00 5.8 10 Nordeste 13 Nordeste 0 -- -- 63
2017-11-22 07:00:00 5.8 5 Noroeste 20 Este 0 -- -- 57
2017-11-22 06:00:00 7.3 15 Este 19 Nordeste 0 -- -- 55
2017-11-22 05:00:00 7.7 6 Este 18 Nordeste 0 -- -- 58
2017-11-22 04:00:00 8.2 12 Este 22 Este 0 -- -- 54
2017-11-22 03:00:00 9.3 13 Nordeste 22 Nordeste 0 -- -- 46
2017-11-22 02:00:00 9.2 15 Este 23 Este 0 -- -- 48
2017-11-22 01:00:00 -- -- -- -- -- -- -- -- --
2017-11-22 00:00:00 -- -- -- -- -- -- -- -- --
2017-11-21 23:00:00 -- -- -- -- -- -- -- -- --
2017-11-21 22:00:00 -- -- -- -- -- -- -- -- --
2017-11-21 21:00:00 -- -- -- -- -- -- -- -- --
2017-11-21 20:00:00 -- -- -- -- -- -- -- -- --
2017-11-21 19:00:00 -- -- -- -- -- -- -- -- --
2017-11-21 18:00:00 -- -- -- -- -- -- -- -- --
2017-11-21 17:00:00 -- -- -- -- -- -- -- -- --
2017-11-21 16:00:00 -- -- -- -- -- -- -- -- --
2017-11-21 15:00:00 -- -- -- -- -- -- -- -- --
2017-11-21 14:00:00 -- -- -- -- -- -- -- -- --
2017-11-21 13:00:00 -- -- -- -- -- -- -- -- --
2017-11-21 12:00:00 -- -- -- -- -- -- -- -- --
2017-11-21 11:00:00 -- -- -- -- -- -- -- -- --
2017-11-21 10:00:00 -- -- -- -- -- -- -- -- --
2017-11-21 09:00:00 -- -- -- -- -- -- -- -- --
2017-11-21 08:00:00 -- -- -- -- -- -- -- -- --
2017-11-21 07:00:00 -- -- -- -- -- -- -- -- --
2017-11-21 06:00:00 -- -- -- -- -- -- -- -- --
2017-11-21 05:00:00 -- -- -- -- -- -- -- -- --
2017-11-21 04:00:00 -- -- -- -- -- -- -- -- --
2017-11-21 03:00:00 -- -- -- -- -- -- -- -- --
2017-11-21 02:00:00 -- -- -- -- -- -- -- -- --
2017-11-21 01:00:00 -- -- -- -- -- -- -- -- --
2017-11-21 00:00:00 -- -- -- -- -- -- -- -- --
2017-11-20 23:00:00 -- -- -- -- -- -- -- -- --
2017-11-20 22:00:00 -- -- -- -- -- -- -- -- --
2017-11-20 21:00:00 -- -- -- -- -- -- -- -- --
2017-11-20 20:00:00 -- -- -- -- -- -- -- -- --
2017-11-20 19:00:00 -- -- -- -- -- -- -- -- --
2017-11-20 18:00:00 -- -- -- -- -- -- -- -- --
2017-11-20 17:00:00 -- -- -- -- -- -- -- -- --
2017-11-20 16:00:00 -- -- -- -- -- -- -- -- --
2017-11-20 15:00:00 -- -- -- -- -- -- -- -- --
2017-11-20 14:00:00 -- -- -- -- -- -- -- -- --
2017-11-20 13:00:00 -- -- -- -- -- -- -- -- --
2017-11-20 12:00:00 -- -- -- -- -- -- -- -- --
2017-11-20 11:00:00 -- -- -- -- -- -- -- -- --
2017-11-20 10:00:00 -- -- -- -- -- -- -- -- --
2017-11-20 09:00:00 -- -- -- -- -- -- -- -- --
2017-11-20 08:00:00 -- -- -- -- -- -- -- -- --
2017-11-20 07:00:00 -- -- -- -- -- -- -- -- --
2017-11-20 06:00:00 -- -- -- -- -- -- -- -- --
2017-11-20 05:00:00 -- -- -- -- -- -- -- -- --
2017-11-20 04:00:00 -- -- -- -- -- -- -- -- --
2017-11-20 03:00:00 -- -- -- -- -- -- -- -- --
2017-11-20 02:00:00 -- -- -- -- -- -- -- -- --
2017-11-20 01:00:00 -- -- -- -- -- -- -- -- --
2017-11-20 00:00:00 -- -- -- -- -- -- -- -- --
2017-11-19 23:00:00 -- -- -- -- -- -- -- -- --
2017-11-19 22:00:00 -- -- -- -- -- -- -- -- --
2017-11-19 21:00:00 -- -- -- -- -- -- -- -- --
2017-11-19 20:00:00 -- -- -- -- -- -- -- -- --
2017-11-19 19:00:00 -- -- -- -- -- -- -- -- --
2017-11-19 18:00:00 -- -- -- -- -- -- -- -- --
2017-11-19 17:00:00 -- -- -- -- -- -- -- -- --
2017-11-19 16:00:00 -- -- -- -- -- -- -- -- --
2017-11-19 15:00:00 -- -- -- -- -- -- -- -- --
2017-11-19 14:00:00 -- -- -- -- -- -- -- -- --
2017-11-19 13:00:00 -- -- -- -- -- -- -- -- --
2017-11-19 12:00:00 -- -- -- -- -- -- -- -- --
2017-11-19 11:00:00 -- -- -- -- -- -- -- -- --
2017-11-19 10:00:00 -- -- -- -- -- -- -- -- --
2017-11-19 09:00:00 -- -- -- -- -- -- -- -- --
2017-11-19 08:00:00 -- -- -- -- -- -- -- -- --
2017-11-19 07:00:00 -- -- -- -- -- -- -- -- --
2017-11-19 06:00:00 -- -- -- -- -- -- -- -- --
2017-11-19 05:00:00 -- -- -- -- -- -- -- -- --
2017-11-19 04:00:00 -- -- -- -- -- -- -- -- --
2017-11-19 03:00:00 -- -- -- -- -- -- -- -- --
2017-11-19 02:00:00 -- -- -- -- -- -- -- -- --
2017-11-19 01:00:00 -- -- -- -- -- -- -- -- --
2017-11-19 00:00:00 -- -- -- -- -- -- -- -- --
2017-11-18 23:00:00 -- -- -- -- -- -- -- -- --
2017-11-18 22:00:00 -- -- -- -- -- -- -- -- --
2017-11-18 21:00:00 -- -- -- -- -- -- -- -- --
2017-11-18 20:00:00 -- -- -- -- -- -- -- -- --
2017-11-18 19:00:00 -- -- -- -- -- -- -- -- --
2017-11-18 18:00:00 -- -- -- -- -- -- -- -- --
2017-11-18 17:00:00 -- -- -- -- -- -- -- -- --
2017-11-18 16:00:00 -- -- -- -- -- -- -- -- --
2017-11-18 15:00:00 -- -- -- -- -- -- -- -- --
2017-11-18 14:00:00 -- -- -- -- -- -- -- -- --
2017-11-18 13:00:00 -- -- -- -- -- -- -- -- --
2017-11-18 12:00:00 -- -- -- -- -- -- -- -- --
2017-11-18 11:00:00 -- -- -- -- -- -- -- -- --
2017-11-18 10:00:00 -- -- -- -- -- -- -- -- --
2017-11-18 09:00:00 -- -- -- -- -- -- -- -- --
2017-11-18 08:00:00 -- -- -- -- -- -- -- -- --
2017-11-18 07:00:00 -- -- -- -- -- -- -- -- --
2017-11-18 06:00:00 -- -- -- -- -- -- -- -- --
2017-11-18 05:00:00 -- -- -- -- -- -- -- -- --
2017-11-18 04:00:00 -- -- -- -- -- -- -- -- --
2017-11-18 03:00:00 -- -- -- -- -- -- -- -- --
2017-11-18 02:00:00 -- -- -- -- -- -- -- -- --
2017-11-18 01:00:00 -- -- -- -- -- -- -- -- --
2017-11-18 00:00:00 -- -- -- -- -- -- -- -- --
2017-11-17 23:00:00 -- -- -- -- -- -- -- -- --
2017-11-17 22:00:00 -- -- -- -- -- -- -- -- --
2017-11-17 21:00:00 -- -- -- -- -- -- -- -- --
2017-11-17 20:00:00 -- -- -- -- -- -- -- -- --
2017-11-17 19:00:00 -- -- -- -- -- -- -- -- --
2017-11-17 18:00:00 -- -- -- -- -- -- -- -- --
2017-11-17 17:00:00 -- -- -- -- -- -- -- -- --
2017-11-17 16:00:00 -- -- -- -- -- -- -- -- --
2017-11-17 15:00:00 -- -- -- -- -- -- -- -- --
2017-11-17 14:00:00 -- -- -- -- -- -- -- -- --
2017-11-17 13:00:00 -- -- -- -- -- -- -- -- --
2017-11-17 12:00:00 -- -- -- -- -- -- -- -- --
2017-11-17 11:00:00 -- -- -- -- -- -- -- -- --
2017-11-17 10:00:00 -- -- -- -- -- -- -- -- --
2017-11-17 09:00:00 -- -- -- -- -- -- -- -- --
2017-11-17 08:00:00 -- -- -- -- -- -- -- -- --
2017-11-17 07:00:00 -- -- -- -- -- -- -- -- --
2017-11-17 06:00:00 -- -- -- -- -- -- -- -- --
2017-11-17 05:00:00 -- -- -- -- -- -- -- -- --
2017-11-17 04:00:00 -- -- -- -- -- -- -- -- --
2017-11-17 03:00:00 -- -- -- -- -- -- -- -- --
2017-11-17 02:00:00 -- -- -- -- -- -- -- -- --
2017-11-17 01:00:00 -- -- -- -- -- -- -- -- --
2017-11-17 00:00:00 -- -- -- -- -- -- -- -- --
2017-11-16 23:00:00 -- -- -- -- -- -- -- -- --
2017-11-16 22:00:00 -- -- -- -- -- -- -- -- --
2017-11-16 21:00:00 -- -- -- -- -- -- -- -- --
2017-11-16 20:00:00 -- -- -- -- -- -- -- -- --
2017-11-16 19:00:00 -- -- -- -- -- -- -- -- --
2017-11-16 18:00:00 -- -- -- -- -- -- -- -- --
2017-11-16 17:00:00 -- -- -- -- -- -- -- -- --
2017-11-16 16:00:00 -- -- -- -- -- -- -- -- --
2017-11-16 15:00:00 -- -- -- -- -- -- -- -- --
2017-11-16 14:00:00 -- -- -- -- -- -- -- -- --
2017-11-16 13:00:00 -- -- -- -- -- -- -- -- --
2017-11-16 12:00:00 -- -- -- -- -- -- -- -- --
2017-11-16 11:00:00 -- -- -- -- -- -- -- -- --
2017-11-16 10:00:00 -- -- -- -- -- -- -- -- --
2017-11-16 09:00:00 -- -- -- -- -- -- -- -- --
2017-11-16 08:00:00 -- -- -- -- -- -- -- -- --
2017-11-16 07:00:00 -- -- -- -- -- -- -- -- --
2017-11-16 06:00:00 -- -- -- -- -- -- -- -- --
2017-11-16 05:00:00 -- -- -- -- -- -- -- -- --
2017-11-16 04:00:00 -- -- -- -- -- -- -- -- --
2017-11-16 03:00:00 -- -- -- -- -- -- -- -- --
2017-11-16 02:00:00 -- -- -- -- -- -- -- -- --
2017-11-16 01:00:00 -- -- -- -- -- -- -- -- --
2017-11-16 00:00:00 -- -- -- -- -- -- -- -- --
2017-11-15 23:00:00 -- -- -- -- -- -- -- -- --
2017-11-15 22:00:00 -- -- -- -- -- -- -- -- --
2017-11-15 21:00:00 -- -- -- -- -- -- -- -- --
2017-11-15 20:00:00 -- -- -- -- -- -- -- -- --
2017-11-15 19:00:00 -- -- -- -- -- -- -- -- --
2017-11-15 18:00:00 -- -- -- -- -- -- -- -- --
2017-11-15 17:00:00 -- -- -- -- -- -- -- -- --
2017-11-15 16:00:00 -- -- -- -- -- -- -- -- --
2017-11-15 15:00:00 -- -- -- -- -- -- -- -- --
2017-11-15 14:00:00 -- -- -- -- -- -- -- -- --
2017-11-15 13:00:00 -- -- -- -- -- -- -- -- --
2017-11-15 12:00:00 -- -- -- -- -- -- -- -- --
2017-11-15 11:00:00 -- -- -- -- -- -- -- -- --
2017-11-15 10:00:00 -- -- -- -- -- -- -- -- --
2017-11-15 09:00:00 -- -- -- -- -- -- -- -- --
2017-11-15 08:00:00 -- -- -- -- -- -- -- -- --
2017-11-15 07:00:00 -- -- -- -- -- -- -- -- --
2017-11-15 06:00:00 -- -- -- -- -- -- -- -- --
2017-11-15 05:00:00 -- -- -- -- -- -- -- -- --
2017-11-15 04:00:00 -- -- -- -- -- -- -- -- --
2017-11-15 03:00:00 -- -- -- -- -- -- -- -- --
2017-11-15 02:00:00 -- -- -- -- -- -- -- -- --
2017-11-15 01:00:00 -- -- -- -- -- -- -- -- --
2017-11-15 00:00:00 -- -- -- -- -- -- -- -- --